sensor_id;sensor_type;location;lat;lon;timestamp;P1;durP1;ratioP1;P2;durP2;ratioP2
50319;SDS011;36226;53.464;9.852;2023-04-16T00:00:12;26.45;;;14.48;;
50319;SDS011;36226;53.464;9.852;2023-04-16T00:02:38;22.42;;;14.38;;
50319;SDS011;36226;53.464;9.852;2023-04-16T00:05:03;26.85;;;14.45;;
50319;SDS011;36226;53.464;9.852;2023-04-16T00:07:29;23.67;;;14.60;;
50319;SDS011;36226;53.464;9.852;2023-04-16T00:09:54;25.45;;;14.23;;
50319;SDS011;36226;53.464;9.852;2023-04-16T00:12:19;25.88;;;14.85;;
50319;SDS011;36226;53.464;9.852;2023-04-16T00:14:45;26.65;;;15.30;;
50319;SDS011;36226;53.464;9.852;2023-04-16T00:17:10;24.27;;;15.05;;
50319;SDS011;36226;53.464;9.852;2023-04-16T00:19:35;23.70;;;14.20;;
50319;SDS011;36226;53.464;9.852;2023-04-16T00:22:01;28.42;;;15.38;;
50319;SDS011;36226;53.464;9.852;2023-04-16T00:24:26;27.10;;;14.45;;
50319;SDS011;36226;53.464;9.852;2023-04-16T00:26:52;25.02;;;15.25;;
50319;SDS011;36226;53.464;9.852;2023-04-16T00:29:17;27.77;;;16.13;;
50319;SDS011;36226;53.464;9.852;2023-04-16T00:31:42;28.30;;;14.75;;
50319;SDS011;36226;53.464;9.852;2023-04-16T00:34:08;23.88;;;13.73;;
50319;SDS011;36226;53.464;9.852;2023-04-16T00:36:33;25.88;;;15.77;;
50319;SDS011;36226;53.464;9.852;2023-04-16T00:38:59;23.80;;;13.68;;
50319;SDS011;36226;53.464;9.852;2023-04-16T00:41:24;26.08;;;13.90;;
50319;SDS011;36226;53.464;9.852;2023-04-16T00:43:50;24.38;;;14.23;;
50319;SDS011;36226;53.464;9.852;2023-04-16T00:46:17;24.27;;;14.05;;
50319;SDS011;36226;53.464;9.852;2023-04-16T00:48:43;26.90;;;14.52;;
50319;SDS011;36226;53.464;9.852;2023-04-16T00:51:09;25.35;;;14.70;;
50319;SDS011;36226;53.464;9.852;2023-04-16T00:53:35;23.02;;;12.95;;
50319;SDS011;36226;53.464;9.852;2023-04-16T00:56:01;24.63;;;14.25;;
50319;SDS011;36226;53.464;9.852;2023-04-16T00:58:28;22.80;;;13.52;;
50319;SDS011;36226;53.464;9.852;2023-04-16T01:00:53;26.35;;;14.18;;
50319;SDS011;36226;53.464;9.852;2023-04-16T01:03:20;23.88;;;13.30;;
50319;SDS011;36226;53.464;9.852;2023-04-16T01:05:45;24.02;;;13.60;;
50319;SDS011;36226;53.464;9.852;2023-04-16T01:08:20;24.52;;;14.70;;
50319;SDS011;36226;53.464;9.852;2023-04-16T01:10:46;25.02;;;13.15;;
50319;SDS011;36226;53.464;9.852;2023-04-16T01:13:11;26.05;;;13.65;;
50319;SDS011;36226;53.464;9.852;2023-04-16T01:15:37;23.98;;;14.02;;
50319;SDS011;36226;53.464;9.852;2023-04-16T01:18:02;28.10;;;14.32;;
50319;SDS011;36226;53.464;9.852;2023-04-16T01:20:40;23.30;;;13.23;;
50319;SDS011;36226;53.464;9.852;2023-04-16T01:23:05;25.83;;;13.27;;
50319;SDS011;36226;53.464;9.852;2023-04-16T01:25:31;25.40;;;13.98;;
50319;SDS011;36226;53.464;9.852;2023-04-16T01:27:56;22.70;;;13.60;;
50319;SDS011;36226;53.464;9.852;2023-04-16T01:30:23;24.95;;;13.48;;
50319;SDS011;36226;53.464;9.852;2023-04-16T01:32:48;24.20;;;13.27;;
50319;SDS011;36226;53.464;9.852;2023-04-16T01:35:14;24.17;;;13.77;;
50319;SDS011;36226;53.464;9.852;2023-04-16T01:37:39;22.98;;;13.68;;
50319;SDS011;36226;53.464;9.852;2023-04-16T01:40:05;22.05;;;13.50;;
50319;SDS011;36226;53.464;9.852;2023-04-16T01:42:30;23.52;;;13.95;;
50319;SDS011;36226;53.464;9.852;2023-04-16T01:44:56;21.58;;;12.27;;
50319;SDS011;36226;53.464;9.852;2023-04-16T01:47:21;23.92;;;13.02;;
50319;SDS011;36226;53.464;9.852;2023-04-16T01:49:46;20.30;;;12.77;;
50319;SDS011;36226;53.464;9.852;2023-04-16T01:52:12;22.92;;;12.57;;
50319;SDS011;36226;53.464;9.852;2023-04-16T01:54:37;20.52;;;11.95;;
50319;SDS011;36226;53.464;9.852;2023-04-16T01:57:03;19.92;;;11.48;;
50319;SDS011;36226;53.464;9.852;2023-04-16T01:59:28;18.30;;;11.57;;
50319;SDS011;36226;53.464;9.852;2023-04-16T02:01:53;22.30;;;12.90;;
50319;SDS011;36226;53.464;9.852;2023-04-16T02:04:19;21.85;;;12.27;;
50319;SDS011;36226;53.464;9.852;2023-04-16T02:06:44;22.90;;;12.07;;
50319;SDS011;36226;53.464;9.852;2023-04-16T02:09:10;23.17;;;12.10;;
50319;SDS011;36226;53.464;9.852;2023-04-16T02:11:35;25.35;;;11.77;;
50319;SDS011;36226;53.464;9.852;2023-04-16T02:14:01;22.00;;;12.25;;
50319;SDS011;36226;53.464;9.852;2023-04-16T02:16:26;19.08;;;11.50;;
50319;SDS011;36226;53.464;9.852;2023-04-16T02:18:51;18.77;;;11.63;;
50319;SDS011;36226;53.464;9.852;2023-04-16T02:21:20;23.35;;;12.10;;
50319;SDS011;36226;53.464;9.852;2023-04-16T02:23:45;21.13;;;12.13;;
50319;SDS011;36226;53.464;9.852;2023-04-16T02:26:15;22.15;;;11.82;;
50319;SDS011;36226;53.464;9.852;2023-04-16T02:28:41;19.55;;;11.82;;
50319;SDS011;36226;53.464;9.852;2023-04-16T02:31:06;20.33;;;12.40;;
50319;SDS011;36226;53.464;9.852;2023-04-16T02:33:31;19.17;;;11.45;;
50319;SDS011;36226;53.464;9.852;2023-04-16T02:35:57;20.45;;;12.15;;
50319;SDS011;36226;53.464;9.852;2023-04-16T02:38:22;20.38;;;11.57;;
50319;SDS011;36226;53.464;9.852;2023-04-16T02:40:47;20.85;;;12.10;;
50319;SDS011;36226;53.464;9.852;2023-04-16T02:43:13;21.67;;;12.32;;
50319;SDS011;36226;53.464;9.852;2023-04-16T02:45:38;22.92;;;12.05;;
50319;SDS011;36226;53.464;9.852;2023-04-16T02:48:03;18.58;;;11.40;;
50319;SDS011;36226;53.464;9.852;2023-04-16T02:50:31;19.02;;;11.38;;
50319;SDS011;36226;53.464;9.852;2023-04-16T02:52:56;18.77;;;11.25;;
50319;SDS011;36226;53.464;9.852;2023-04-16T02:55:21;18.90;;;11.25;;
50319;SDS011;36226;53.464;9.852;2023-04-16T02:57:47;20.35;;;12.38;;
50319;SDS011;36226;53.464;9.852;2023-04-16T03:00:12;18.20;;;10.50;;
50319;SDS011;36226;53.464;9.852;2023-04-16T03:02:38;19.67;;;11.93;;
50319;SDS011;36226;53.464;9.852;2023-04-16T03:05:03;22.70;;;12.35;;
50319;SDS011;36226;53.464;9.852;2023-04-16T03:07:29;19.65;;;11.77;;
50319;SDS011;36226;53.464;9.852;2023-04-16T03:09:54;19.95;;;11.25;;
50319;SDS011;36226;53.464;9.852;2023-04-16T03:12:20;20.63;;;11.23;;
50319;SDS011;36226;53.464;9.852;2023-04-16T03:14:49;21.48;;;11.43;;
50319;SDS011;36226;53.464;9.852;2023-04-16T03:17:16;18.65;;;11.80;;
50319;SDS011;36226;53.464;9.852;2023-04-16T03:19:41;18.42;;;10.90;;
50319;SDS011;36226;53.464;9.852;2023-04-16T03:22:06;17.60;;;11.07;;
50319;SDS011;36226;53.464;9.852;2023-04-16T03:24:32;21.92;;;12.10;;
50319;SDS011;36226;53.464;9.852;2023-04-16T03:26:57;18.58;;;11.07;;
50319;SDS011;36226;53.464;9.852;2023-04-16T03:29:22;23.42;;;12.38;;
50319;SDS011;36226;53.464;9.852;2023-04-16T03:31:48;22.48;;;12.60;;
50319;SDS011;36226;53.464;9.852;2023-04-16T03:34:13;23.70;;;12.80;;
50319;SDS011;36226;53.464;9.852;2023-04-16T03:36:39;22.52;;;13.40;;
50319;SDS011;36226;53.464;9.852;2023-04-16T03:39:04;22.58;;;13.00;;
50319;SDS011;36226;53.464;9.852;2023-04-16T03:41:29;21.83;;;12.50;;
50319;SDS011;36226;53.464;9.852;2023-04-16T03:43:54;22.85;;;12.90;;
50319;SDS011;36226;53.464;9.852;2023-04-16T03:46:20;22.85;;;13.75;;
50319;SDS011;36226;53.464;9.852;2023-04-16T03:48:45;21.17;;;13.20;;
50319;SDS011;36226;53.464;9.852;2023-04-16T03:51:11;21.83;;;12.88;;
50319;SDS011;36226;53.464;9.852;2023-04-16T03:53:36;20.52;;;12.48;;
50319;SDS011;36226;53.464;9.852;2023-04-16T03:56:01;22.92;;;12.85;;
50319;SDS011;36226;53.464;9.852;2023-04-16T03:58:27;20.38;;;12.90;;
50319;SDS011;36226;53.464;9.852;2023-04-16T04:00:52;22.35;;;13.52;;
50319;SDS011;36226;53.464;9.852;2023-04-16T04:03:19;23.17;;;13.13;;
50319;SDS011;36226;53.464;9.852;2023-04-16T04:05:44;23.45;;;14.02;;
50319;SDS011;36226;53.464;9.852;2023-04-16T04:08:10;23.27;;;13.57;;
50319;SDS011;36226;53.464;9.852;2023-04-16T04:10:35;23.27;;;13.75;;
50319;SDS011;36226;53.464;9.852;2023-04-16T04:13:02;24.48;;;13.75;;
50319;SDS011;36226;53.464;9.852;2023-04-16T04:15:28;22.35;;;14.45;;
50319;SDS011;36226;53.464;9.852;2023-04-16T04:17:53;24.27;;;14.40;;
50319;SDS011;36226;53.464;9.852;2023-04-16T04:20:19;22.98;;;13.27;;
50319;SDS011;36226;53.464;9.852;2023-04-16T04:22:44;22.30;;;14.05;;
50319;SDS011;36226;53.464;9.852;2023-04-16T04:25:10;23.70;;;13.40;;
50319;SDS011;36226;53.464;9.852;2023-04-16T04:27:35;24.38;;;13.70;;
50319;SDS011;36226;53.464;9.852;2023-04-16T04:30:01;22.60;;;13.75;;
50319;SDS011;36226;53.464;9.852;2023-04-16T04:32:28;22.20;;;14.25;;
50319;SDS011;36226;53.464;9.852;2023-04-16T04:34:53;23.52;;;13.52;;
50319;SDS011;36226;53.464;9.852;2023-04-16T04:37:19;24.30;;;15.00;;
50319;SDS011;36226;53.464;9.852;2023-04-16T04:39:45;26.30;;;14.88;;
50319;SDS011;36226;53.464;9.852;2023-04-16T04:42:10;22.08;;;14.02;;
50319;SDS011;36226;53.464;9.852;2023-04-16T04:44:36;26.77;;;14.82;;
50319;SDS011;36226;53.464;9.852;2023-04-16T04:47:01;27.52;;;15.65;;
50319;SDS011;36226;53.464;9.852;2023-04-16T04:49:26;24.38;;;14.95;;
50319;SDS011;36226;53.464;9.852;2023-04-16T04:51:52;25.90;;;14.52;;
50319;SDS011;36226;53.464;9.852;2023-04-16T04:54:17;25.17;;;15.52;;
50319;SDS011;36226;53.464;9.852;2023-04-16T04:56:42;27.05;;;15.35;;
50319;SDS011;36226;53.464;9.852;2023-04-16T04:59:11;23.13;;;14.95;;
50319;SDS011;36226;53.464;9.852;2023-04-16T05:01:36;24.60;;;14.35;;
50319;SDS011;36226;53.464;9.852;2023-04-16T05:04:02;25.70;;;14.43;;
50319;SDS011;36226;53.464;9.852;2023-04-16T05:06:27;29.13;;;14.38;;
50319;SDS011;36226;53.464;9.852;2023-04-16T05:08:53;27.35;;;15.02;;
50319;SDS011;36226;53.464;9.852;2023-04-16T05:11:18;28.17;;;15.25;;
50319;SDS011;36226;53.464;9.852;2023-04-16T05:13:43;27.77;;;14.95;;
50319;SDS011;36226;53.464;9.852;2023-04-16T05:16:09;25.38;;;15.38;;
50319;SDS011;36226;53.464;9.852;2023-04-16T05:18:34;23.38;;;14.07;;
50319;SDS011;36226;53.464;9.852;2023-04-16T05:20:59;25.35;;;14.77;;
50319;SDS011;36226;53.464;9.852;2023-04-16T05:23:25;23.42;;;14.43;;
50319;SDS011;36226;53.464;9.852;2023-04-16T05:25:50;23.15;;;14.10;;
50319;SDS011;36226;53.464;9.852;2023-04-16T05:28:16;24.92;;;14.77;;
50319;SDS011;36226;53.464;9.852;2023-04-16T05:30:41;25.52;;;13.98;;
50319;SDS011;36226;53.464;9.852;2023-04-16T05:33:06;22.17;;;13.65;;
50319;SDS011;36226;53.464;9.852;2023-04-16T05:35:32;24.00;;;13.95;;
50319;SDS011;36226;53.464;9.852;2023-04-16T05:38:00;24.23;;;14.32;;
50319;SDS011;36226;53.464;9.852;2023-04-16T05:40:25;26.77;;;15.45;;
50319;SDS011;36226;53.464;9.852;2023-04-16T05:42:51;25.10;;;14.80;;
50319;SDS011;36226;53.464;9.852;2023-04-16T05:45:16;22.85;;;13.88;;
50319;SDS011;36226;53.464;9.852;2023-04-16T05:47:41;23.30;;;14.68;;
50319;SDS011;36226;53.464;9.852;2023-04-16T05:50:07;23.15;;;14.23;;
50319;SDS011;36226;53.464;9.852;2023-04-16T05:52:33;24.00;;;14.25;;
50319;SDS011;36226;53.464;9.852;2023-04-16T05:54:58;22.98;;;13.77;;
50319;SDS011;36226;53.464;9.852;2023-04-16T05:57:25;24.17;;;14.20;;
50319;SDS011;36226;53.464;9.852;2023-04-16T05:59:52;27.10;;;14.98;;
50319;SDS011;36226;53.464;9.852;2023-04-16T06:02:17;24.27;;;14.20;;
50319;SDS011;36226;53.464;9.852;2023-04-16T06:04:42;25.30;;;14.30;;
50319;SDS011;36226;53.464;9.852;2023-04-16T06:07:08;25.63;;;14.50;;
50319;SDS011;36226;53.464;9.852;2023-04-16T06:09:33;26.30;;;14.82;;
50319;SDS011;36226;53.464;9.852;2023-04-16T06:11:58;28.00;;;14.98;;
50319;SDS011;36226;53.464;9.852;2023-04-16T06:14:24;28.85;;;15.68;;
50319;SDS011;36226;53.464;9.852;2023-04-16T06:16:49;25.35;;;14.77;;
50319;SDS011;36226;53.464;9.852;2023-04-16T06:19:15;24.63;;;14.07;;
50319;SDS011;36226;53.464;9.852;2023-04-16T06:21:40;23.85;;;14.10;;
50319;SDS011;36226;53.464;9.852;2023-04-16T06:24:05;23.60;;;13.63;;
50319;SDS011;36226;53.464;9.852;2023-04-16T06:26:31;28.92;;;15.02;;
50319;SDS011;36226;53.464;9.852;2023-04-16T06:28:56;24.55;;;14.18;;
50319;SDS011;36226;53.464;9.852;2023-04-16T06:31:21;24.48;;;15.27;;
50319;SDS011;36226;53.464;9.852;2023-04-16T06:33:47;25.52;;;15.30;;
50319;SDS011;36226;53.464;9.852;2023-04-16T06:36:12;25.48;;;15.00;;
50319;SDS011;36226;53.464;9.852;2023-04-16T06:38:37;25.92;;;14.55;;
50319;SDS011;36226;53.464;9.852;2023-04-16T06:41:03;25.75;;;14.75;;
50319;SDS011;36226;53.464;9.852;2023-04-16T06:43:29;25.23;;;14.43;;
50319;SDS011;36226;53.464;9.852;2023-04-16T06:45:57;22.77;;;13.95;;
50319;SDS011;36226;53.464;9.852;2023-04-16T06:48:22;24.77;;;14.65;;
50319;SDS011;36226;53.464;9.852;2023-04-16T06:50:48;23.83;;;14.63;;
50319;SDS011;36226;53.464;9.852;2023-04-16T06:53:13;22.80;;;14.13;;
50319;SDS011;36226;53.464;9.852;2023-04-16T06:55:39;25.55;;;13.82;;
50319;SDS011;36226;53.464;9.852;2023-04-16T06:58:04;24.13;;;14.07;;
50319;SDS011;36226;53.464;9.852;2023-04-16T07:00:30;28.65;;;13.75;;
50319;SDS011;36226;53.464;9.852;2023-04-16T07:02:55;23.98;;;14.30;;
50319;SDS011;36226;53.464;9.852;2023-04-16T07:05:20;25.15;;;14.68;;
50319;SDS011;36226;53.464;9.852;2023-04-16T07:07:45;25.25;;;14.30;;
50319;SDS011;36226;53.464;9.852;2023-04-16T07:10:11;26.80;;;14.27;;
50319;SDS011;36226;53.464;9.852;2023-04-16T07:12:36;25.80;;;14.68;;
50319;SDS011;36226;53.464;9.852;2023-04-16T07:15:02;25.75;;;14.10;;
50319;SDS011;36226;53.464;9.852;2023-04-16T07:17:27;25.08;;;13.50;;
50319;SDS011;36226;53.464;9.852;2023-04-16T07:19:52;25.55;;;13.52;;
50319;SDS011;36226;53.464;9.852;2023-04-16T07:22:18;23.75;;;13.85;;
50319;SDS011;36226;53.464;9.852;2023-04-16T07:24:44;23.58;;;14.63;;
50319;SDS011;36226;53.464;9.852;2023-04-16T07:27:09;21.02;;;13.32;;
50319;SDS011;36226;53.464;9.852;2023-04-16T07:29:35;21.35;;;13.48;;
50319;SDS011;36226;53.464;9.852;2023-04-16T07:32:00;26.35;;;14.02;;
50319;SDS011;36226;53.464;9.852;2023-04-16T07:34:26;24.15;;;14.90;;
50319;SDS011;36226;53.464;9.852;2023-04-16T07:36:51;24.95;;;13.82;;
50319;SDS011;36226;53.464;9.852;2023-04-16T07:39:16;22.67;;;13.55;;
50319;SDS011;36226;53.464;9.852;2023-04-16T07:41:42;25.17;;;14.38;;
50319;SDS011;36226;53.464;9.852;2023-04-16T07:44:07;22.08;;;13.27;;
50319;SDS011;36226;53.464;9.852;2023-04-16T07:46:33;25.08;;;14.93;;
50319;SDS011;36226;53.464;9.852;2023-04-16T07:48:58;26.63;;;14.25;;
50319;SDS011;36226;53.464;9.852;2023-04-16T07:51:23;22.85;;;13.88;;
50319;SDS011;36226;53.464;9.852;2023-04-16T07:53:50;24.23;;;13.57;;
50319;SDS011;36226;53.464;9.852;2023-04-16T07:56:15;23.70;;;14.20;;
50319;SDS011;36226;53.464;9.852;2023-04-16T07:58:40;26.73;;;13.57;;
50319;SDS011;36226;53.464;9.852;2023-04-16T08:01:06;26.15;;;14.75;;
50319;SDS011;36226;53.464;9.852;2023-04-16T08:03:31;28.08;;;14.77;;
50319;SDS011;36226;53.464;9.852;2023-04-16T08:05:57;21.73;;;13.18;;
50319;SDS011;36226;53.464;9.852;2023-04-16T08:08:22;23.38;;;13.23;;
50319;SDS011;36226;53.464;9.852;2023-04-16T08:10:48;21.42;;;13.18;;
50319;SDS011;36226;53.464;9.852;2023-04-16T08:13:13;25.30;;;13.10;;
50319;SDS011;36226;53.464;9.852;2023-04-16T08:15:38;24.02;;;13.43;;
50319;SDS011;36226;53.464;9.852;2023-04-16T08:18:04;21.23;;;13.07;;
50319;SDS011;36226;53.464;9.852;2023-04-16T08:20:30;21.95;;;12.63;;
50319;SDS011;36226;53.464;9.852;2023-04-16T08:22:56;24.00;;;13.05;;
50319;SDS011;36226;53.464;9.852;2023-04-16T08:25:22;18.27;;;11.90;;
50319;SDS011;36226;53.464;9.852;2023-04-16T08:27:48;21.23;;;12.45;;
50319;SDS011;36226;53.464;9.852;2023-04-16T08:30:14;21.60;;;13.15;;
50319;SDS011;36226;53.464;9.852;2023-04-16T08:32:41;20.33;;;12.60;;
50319;SDS011;36226;53.464;9.852;2023-04-16T08:35:07;20.60;;;12.40;;
50319;SDS011;36226;53.464;9.852;2023-04-16T08:37:32;21.55;;;13.05;;
50319;SDS011;36226;53.464;9.852;2023-04-16T08:39:58;24.60;;;13.32;;
50319;SDS011;36226;53.464;9.852;2023-04-16T08:42:44;22.75;;;12.82;;
50319;SDS011;36226;53.464;9.852;2023-04-16T08:45:14;19.55;;;12.32;;
50319;SDS011;36226;53.464;9.852;2023-04-16T08:47:41;17.95;;;11.90;;
50319;SDS011;36226;53.464;9.852;2023-04-16T08:50:10;19.40;;;12.35;;
50319;SDS011;36226;53.464;9.852;2023-04-16T08:52:36;21.88;;;12.30;;
50319;SDS011;36226;53.464;9.852;2023-04-16T08:55:12;18.60;;;11.65;;
50319;SDS011;36226;53.464;9.852;2023-04-16T08:57:38;17.83;;;11.38;;
50319;SDS011;36226;53.464;9.852;2023-04-16T09:00:18;21.38;;;11.85;;
50319;SDS011;36226;53.464;9.852;2023-04-16T09:02:44;18.45;;;11.82;;
50319;SDS011;36226;53.464;9.852;2023-04-16T09:05:10;19.42;;;11.70;;
50319;SDS011;36226;53.464;9.852;2023-04-16T09:07:41;22.05;;;13.10;;
50319;SDS011;36226;53.464;9.852;2023-04-16T09:10:06;21.33;;;11.88;;
50319;SDS011;36226;53.464;9.852;2023-04-16T09:12:32;19.60;;;12.07;;
50319;SDS011;36226;53.464;9.852;2023-04-16T09:14:58;18.63;;;11.73;;
50319;SDS011;36226;53.464;9.852;2023-04-16T09:17:26;17.67;;;11.20;;
50319;SDS011;36226;53.464;9.852;2023-04-16T09:19:52;17.55;;;11.55;;
50319;SDS011;36226;53.464;9.852;2023-04-16T09:22:18;21.65;;;11.43;;
50319;SDS011;36226;53.464;9.852;2023-04-16T09:24:43;21.77;;;11.52;;
50319;SDS011;36226;53.464;9.852;2023-04-16T09:27:08;17.23;;;11.50;;
50319;SDS011;36226;53.464;9.852;2023-04-16T09:29:38;17.95;;;11.93;;
50319;SDS011;36226;53.464;9.852;2023-04-16T09:32:05;15.93;;;10.52;;
50319;SDS011;36226;53.464;9.852;2023-04-16T09:34:31;18.15;;;11.68;;
50319;SDS011;36226;53.464;9.852;2023-04-16T09:37:13;17.42;;;11.25;;
50319;SDS011;36226;53.464;9.852;2023-04-16T09:39:41;16.77;;;11.60;;
50319;SDS011;36226;53.464;9.852;2023-04-16T09:42:07;19.80;;;11.63;;
50319;SDS011;36226;53.464;9.852;2023-04-16T09:44:36;19.83;;;11.13;;
50319;SDS011;36226;53.464;9.852;2023-04-16T09:47:08;20.90;;;11.25;;
50319;SDS011;36226;53.464;9.852;2023-04-16T09:49:47;18.95;;;12.02;;
50319;SDS011;36226;53.464;9.852;2023-04-16T09:52:17;21.10;;;12.32;;
50319;SDS011;36226;53.464;9.852;2023-04-16T09:54:50;16.95;;;11.57;;
50319;SDS011;36226;53.464;9.852;2023-04-16T09:57:25;19.50;;;12.10;;
50319;SDS011;36226;53.464;9.852;2023-04-16T09:59:51;17.88;;;11.65;;
50319;SDS011;36226;53.464;9.852;2023-04-16T10:02:28;15.68;;;10.48;;
50319;SDS011;36226;53.464;9.852;2023-04-16T10:04:54;18.38;;;10.98;;
50319;SDS011;36226;53.464;9.852;2023-04-16T10:07:55;18.15;;;11.13;;
50319;SDS011;36226;53.464;9.852;2023-04-16T10:10:16;21.10;;;11.27;;
50319;SDS011;36226;53.464;9.852;2023-04-16T10:12:42;16.15;;;10.85;;
50319;SDS011;36226;53.464;9.852;2023-04-16T10:15:07;15.77;;;10.90;;
50319;SDS011;36226;53.464;9.852;2023-04-16T10:17:33;18.20;;;11.05;;
50319;SDS011;36226;53.464;9.852;2023-04-16T10:19:59;16.05;;;10.38;;
50319;SDS011;36226;53.464;9.852;2023-04-16T10:22:25;16.15;;;11.05;;
50319;SDS011;36226;53.464;9.852;2023-04-16T10:24:53;16.45;;;11.32;;
50319;SDS011;36226;53.464;9.852;2023-04-16T10:27:19;15.93;;;10.73;;
50319;SDS011;36226;53.464;9.852;2023-04-16T10:29:45;16.50;;;10.82;;
50319;SDS011;36226;53.464;9.852;2023-04-16T10:32:10;15.15;;;10.50;;
50319;SDS011;36226;53.464;9.852;2023-04-16T10:34:36;15.55;;;10.63;;
50319;SDS011;36226;53.464;9.852;2023-04-16T10:37:01;19.50;;;11.10;;
50319;SDS011;36226;53.464;9.852;2023-04-16T10:39:27;16.35;;;9.95;;
50319;SDS011;36226;53.464;9.852;2023-04-16T10:42:06;13.75;;;9.52;;
50319;SDS011;36226;53.464;9.852;2023-04-16T10:44:35;14.98;;;10.18;;
50319;SDS011;36226;53.464;9.852;2023-04-16T10:47:01;16.85;;;10.68;;
50319;SDS011;36226;53.464;9.852;2023-04-16T10:49:26;17.48;;;11.45;;
50319;SDS011;36226;53.464;9.852;2023-04-16T10:51:52;17.83;;;10.93;;
50319;SDS011;36226;53.464;9.852;2023-04-16T10:54:25;19.20;;;10.93;;
50319;SDS011;36226;53.464;9.852;2023-04-16T10:56:55;17.02;;;10.38;;
50319;SDS011;36226;53.464;9.852;2023-04-16T10:59:22;14.60;;;10.23;;
50319;SDS011;36226;53.464;9.852;2023-04-16T11:01:52;15.13;;;9.50;;
50319;SDS011;36226;53.464;9.852;2023-04-16T11:09:41;15.80;;;10.35;;
50319;SDS011;36226;53.464;9.852;2023-04-16T11:12:14;16.60;;;10.63;;
50319;SDS011;36226;53.464;9.852;2023-04-16T11:14:53;14.85;;;10.40;;
50319;SDS011;36226;53.464;9.852;2023-04-16T11:17:20;14.73;;;10.07;;
50319;SDS011;36226;53.464;9.852;2023-04-16T11:19:46;15.15;;;10.13;;
50319;SDS011;36226;53.464;9.852;2023-04-16T11:22:12;15.70;;;10.77;;
50319;SDS011;36226;53.464;9.852;2023-04-16T11:24:39;17.50;;;10.10;;
50319;SDS011;36226;53.464;9.852;2023-04-16T11:27:05;13.07;;;9.60;;
50319;SDS011;36226;53.464;9.852;2023-04-16T11:29:31;15.93;;;10.35;;
50319;SDS011;36226;53.464;9.852;2023-04-16T11:31:56;17.20;;;10.50;;
50319;SDS011;36226;53.464;9.852;2023-04-16T11:34:22;14.32;;;9.75;;
50319;SDS011;36226;53.464;9.852;2023-04-16T11:36:48;13.95;;;9.98;;
50319;SDS011;36226;53.464;9.852;2023-04-16T11:39:14;16.45;;;9.82;;
50319;SDS011;36226;53.464;9.852;2023-04-16T11:44:19;16.88;;;10.43;;
50319;SDS011;36226;53.464;9.852;2023-04-16T11:46:46;15.23;;;10.27;;
50319;SDS011;36226;53.464;9.852;2023-04-16T11:49:11;14.20;;;9.73;;
50319;SDS011;36226;53.464;9.852;2023-04-16T11:51:40;15.93;;;9.95;;
50319;SDS011;36226;53.464;9.852;2023-04-16T11:54:07;13.57;;;9.45;;
50319;SDS011;36226;53.464;9.852;2023-04-16T11:56:33;13.77;;;9.48;;
50319;SDS011;36226;53.464;9.852;2023-04-16T11:59:12;15.23;;;10.18;;
50319;SDS011;36226;53.464;9.852;2023-04-16T12:01:42;16.30;;;9.80;;
50319;SDS011;36226;53.464;9.852;2023-04-16T12:04:10;18.70;;;10.20;;
50319;SDS011;36226;53.464;9.852;2023-04-16T12:06:36;13.65;;;10.02;;
50319;SDS011;36226;53.464;9.852;2023-04-16T12:11:47;17.03;;;10.50;;
50319;SDS011;36226;53.464;9.852;2023-04-16T12:14:12;16.00;;;10.38;;
50319;SDS011;36226;53.464;9.852;2023-04-16T12:16:37;17.70;;;10.95;;
50319;SDS011;36226;53.464;9.852;2023-04-16T12:19:03;20.52;;;12.00;;
50319;SDS011;36226;53.464;9.852;2023-04-16T12:21:42;18.80;;;11.57;;
50319;SDS011;36226;53.464;9.852;2023-04-16T12:24:13;16.13;;;10.43;;
50319;SDS011;36226;53.464;9.852;2023-04-16T12:31:40;13.70;;;9.15;;
50319;SDS011;36226;53.464;9.852;2023-04-16T12:34:06;15.50;;;10.10;;
50319;SDS011;36226;53.464;9.852;2023-04-16T12:36:31;14.43;;;9.18;;
50319;SDS011;36226;53.464;9.852;2023-04-16T12:38:57;13.60;;;8.60;;
50319;SDS011;36226;53.464;9.852;2023-04-16T12:41:22;15.85;;;9.00;;
50319;SDS011;36226;53.464;9.852;2023-04-16T12:43:47;12.68;;;9.18;;
50319;SDS011;36226;53.464;9.852;2023-04-16T12:46:13;13.77;;;9.23;;
50319;SDS011;36226;53.464;9.852;2023-04-16T12:48:38;14.38;;;9.23;;
50319;SDS011;36226;53.464;9.852;2023-04-16T12:51:03;14.88;;;9.30;;
50319;SDS011;36226;53.464;9.852;2023-04-16T12:53:29;14.07;;;9.50;;
50319;SDS011;36226;53.464;9.852;2023-04-16T12:55:54;12.63;;;9.02;;
50319;SDS011;36226;53.464;9.852;2023-04-16T12:58:19;15.35;;;9.70;;
50319;SDS011;36226;53.464;9.852;2023-04-16T13:00:45;17.42;;;10.13;;
50319;SDS011;36226;53.464;9.852;2023-04-16T13:03:10;14.25;;;9.45;;
50319;SDS011;36226;53.464;9.852;2023-04-16T13:05:35;18.25;;;10.77;;
50319;SDS011;36226;53.464;9.852;2023-04-16T13:08:01;20.17;;;11.32;;
50319;SDS011;36226;53.464;9.852;2023-04-16T13:10:26;17.05;;;10.75;;
50319;SDS011;36226;53.464;9.852;2023-04-16T13:12:52;16.10;;;9.23;;
50319;SDS011;36226;53.464;9.852;2023-04-16T13:15:17;16.13;;;9.52;;
50319;SDS011;36226;53.464;9.852;2023-04-16T13:17:42;14.05;;;9.07;;
50319;SDS011;36226;53.464;9.852;2023-04-16T13:20:11;13.52;;;9.57;;
50319;SDS011;36226;53.464;9.852;2023-04-16T13:22:36;12.98;;;9.60;;
50319;SDS011;36226;53.464;9.852;2023-04-16T13:25:02;14.73;;;8.82;;
50319;SDS011;36226;53.464;9.852;2023-04-16T13:27:27;13.25;;;9.10;;
50319;SDS011;36226;53.464;9.852;2023-04-16T13:29:52;13.93;;;9.43;;
50319;SDS011;36226;53.464;9.852;2023-04-16T13:32:18;14.20;;;9.10;;
50319;SDS011;36226;53.464;9.852;2023-04-16T13:34:43;17.42;;;10.27;;
50319;SDS011;36226;53.464;9.852;2023-04-16T13:37:09;16.08;;;9.30;;
50319;SDS011;36226;53.464;9.852;2023-04-16T13:39:34;14.40;;;10.00;;
50319;SDS011;36226;53.464;9.852;2023-04-16T13:41:59;16.27;;;10.65;;
50319;SDS011;36226;53.464;9.852;2023-04-16T13:44:25;14.50;;;9.50;;
50319;SDS011;36226;53.464;9.852;2023-04-16T13:46:50;18.35;;;10.75;;
50319;SDS011;36226;53.464;9.852;2023-04-16T13:49:20;17.77;;;10.82;;
50319;SDS011;36226;53.464;9.852;2023-04-16T13:51:46;17.50;;;10.90;;
50319;SDS011;36226;53.464;9.852;2023-04-16T13:54:11;21.67;;;13.88;;
50319;SDS011;36226;53.464;9.852;2023-04-16T13:56:37;23.13;;;14.90;;
50319;SDS011;36226;53.464;9.852;2023-04-16T13:59:02;17.80;;;11.43;;
50319;SDS011;36226;53.464;9.852;2023-04-16T14:01:28;16.92;;;11.07;;
50319;SDS011;36226;53.464;9.852;2023-04-16T14:03:53;14.25;;;10.77;;
50319;SDS011;36226;53.464;9.852;2023-04-16T14:06:18;17.08;;;10.65;;
50319;SDS011;36226;53.464;9.852;2023-04-16T14:08:44;15.90;;;10.77;;
50319;SDS011;36226;53.464;9.852;2023-04-16T14:11:10;16.42;;;11.15;;
50319;SDS011;36226;53.464;9.852;2023-04-16T14:13:35;16.95;;;10.73;;
50319;SDS011;36226;53.464;9.852;2023-04-16T14:16:01;16.80;;;10.50;;
50319;SDS011;36226;53.464;9.852;2023-04-16T14:18:26;16.65;;;10.82;;
50319;SDS011;36226;53.464;9.852;2023-04-16T14:20:52;17.85;;;11.80;;
50319;SDS011;36226;53.464;9.852;2023-04-16T14:23:17;20.65;;;11.70;;
50319;SDS011;36226;53.464;9.852;2023-04-16T14:25:42;15.82;;;11.05;;
50319;SDS011;36226;53.464;9.852;2023-04-16T14:28:08;13.32;;;10.00;;
50319;SDS011;36226;53.464;9.852;2023-04-16T14:30:33;15.50;;;10.43;;
50319;SDS011;36226;53.464;9.852;2023-04-16T14:32:58;18.58;;;10.38;;